sensor_id;sensor_type;location;lat;lon;timestamp;P1;durP1;ratioP1;P2;durP2;ratioP2
9918;SDS011;4998;51.024;13.828;2023-07-24T00:04:30;3.50;;;3.20;;
9918;SDS011;4998;51.024;13.828;2023-07-24T00:06:59;3.20;;;2.90;;
9918;SDS011;4998;51.024;13.828;2023-07-24T00:09:26;6.60;;;3.10;;
9918;SDS011;4998;51.024;13.828;2023-07-24T00:11:53;2.70;;;2.50;;
9918;SDS011;4998;51.024;13.828;2023-07-24T00:14:20;2.70;;;2.50;;
9918;SDS011;4998;51.024;13.828;2023-07-24T00:16:47;3.10;;;2.90;;
9918;SDS011;4998;51.024;13.828;2023-07-24T00:19:14;2.67;;;2.47;;
9918;SDS011;4998;51.024;13.828;2023-07-24T00:21:41;2.80;;;2.50;;
9918;SDS011;4998;51.024;13.828;2023-07-24T00:24:09;2.97;;;2.77;;
9918;SDS011;4998;51.024;13.828;2023-07-24T00:26:36;2.90;;;2.60;;
9918;SDS011;4998;51.024;13.828;2023-07-24T00:29:03;2.57;;;2.37;;
9918;SDS011;4998;51.024;13.828;2023-07-24T00:31:30;3.00;;;2.70;;
9918;SDS011;4998;51.024;13.828;2023-07-24T00:33:57;3.20;;;2.23;;
9918;SDS011;4998;51.024;13.828;2023-07-24T00:36:25;4.07;;;2.83;;
9918;SDS011;4998;51.024;13.828;2023-07-24T00:38:52;2.80;;;2.60;;
9918;SDS011;4998;51.024;13.828;2023-07-24T00:41:20;2.80;;;2.60;;
9918;SDS011;4998;51.024;13.828;2023-07-24T00:43:47;3.07;;;2.80;;
9918;SDS011;4998;51.024;13.828;2023-07-24T00:46:14;2.80;;;2.60;;
9918;SDS011;4998;51.024;13.828;2023-07-24T00:48:41;2.70;;;2.50;;
9918;SDS011;4998;51.024;13.828;2023-07-24T00:51:08;3.10;;;2.60;;
9918;SDS011;4998;51.024;13.828;2023-07-24T00:53:36;2.70;;;2.50;;
9918;SDS011;4998;51.024;13.828;2023-07-24T00:56:03;3.30;;;3.00;;
9918;SDS011;4998;51.024;13.828;2023-07-24T00:58:32;3.67;;;3.17;;
9918;SDS011;4998;51.024;13.828;2023-07-24T01:01:01;3.50;;;3.20;;
9918;SDS011;4998;51.024;13.828;2023-07-24T01:03:31;3.37;;;3.10;;
9918;SDS011;4998;51.024;13.828;2023-07-24T01:05:59;3.10;;;2.80;;
9918;SDS011;4998;51.024;13.828;2023-07-24T01:08:28;3.27;;;2.97;;
9918;SDS011;4998;51.024;13.828;2023-07-24T01:10:55;4.03;;;3.00;;
9918;SDS011;4998;51.024;13.828;2023-07-24T01:13:28;4.80;;;3.40;;
9918;SDS011;4998;51.024;13.828;2023-07-24T01:16:03;3.43;;;3.10;;
9918;SDS011;4998;51.024;13.828;2023-07-24T01:18:35;3.03;;;2.83;;
9918;SDS011;4998;51.024;13.828;2023-07-24T01:21:05;3.17;;;2.87;;
9918;SDS011;4998;51.024;13.828;2023-07-24T01:23:44;3.10;;;2.90;;
9918;SDS011;4998;51.024;13.828;2023-07-24T01:26:19;2.90;;;2.60;;
9918;SDS011;4998;51.024;13.828;2023-07-24T01:28:49;2.80;;;2.60;;
9918;SDS011;4998;51.024;13.828;2023-07-24T01:31:16;3.00;;;2.70;;
9918;SDS011;4998;51.024;13.828;2023-07-24T01:33:43;2.90;;;2.70;;
9918;SDS011;4998;51.024;13.828;2023-07-24T01:36:10;3.53;;;2.53;;
9918;SDS011;4998;51.024;13.828;2023-07-24T01:38:38;2.90;;;2.70;;
9918;SDS011;4998;51.024;13.828;2023-07-24T01:41:06;2.83;;;2.63;;
9918;SDS011;4998;51.024;13.828;2023-07-24T01:43:35;3.13;;;2.83;;
9918;SDS011;4998;51.024;13.828;2023-07-24T01:46:02;3.70;;;3.03;;
9918;SDS011;4998;51.024;13.828;2023-07-24T01:48:29;3.17;;;2.87;;
9918;SDS011;4998;51.024;13.828;2023-07-24T01:50:56;2.60;;;2.40;;
9918;SDS011;4998;51.024;13.828;2023-07-24T01:53:23;3.27;;;2.97;;
9918;SDS011;4998;51.024;13.828;2023-07-24T01:55:50;2.67;;;2.47;;
9918;SDS011;4998;51.024;13.828;2023-07-24T01:58:17;2.83;;;2.63;;
9918;SDS011;4998;51.024;13.828;2023-07-24T02:00:45;3.00;;;2.70;;
9918;SDS011;4998;51.024;13.828;2023-07-24T02:03:12;2.90;;;2.70;;
9918;SDS011;4998;51.024;13.828;2023-07-24T02:05:39;3.23;;;2.97;;
9918;SDS011;4998;51.024;13.828;2023-07-24T02:08:06;2.83;;;2.57;;
9918;SDS011;4998;51.024;13.828;2023-07-24T02:10:36;2.70;;;2.50;;
9918;SDS011;4998;51.024;13.828;2023-07-24T02:13:03;4.83;;;3.00;;
9918;SDS011;4998;51.024;13.828;2023-07-24T02:15:32;3.30;;;3.00;;
9918;SDS011;4998;51.024;13.828;2023-07-24T02:18:01;2.73;;;2.53;;
9918;SDS011;4998;51.024;13.828;2023-07-24T02:20:27;3.30;;;3.00;;
9918;SDS011;4998;51.024;13.828;2023-07-24T02:22:54;4.23;;;3.00;;
9918;SDS011;4998;51.024;13.828;2023-07-24T02:25:22;2.90;;;2.70;;
9918;SDS011;4998;51.024;13.828;2023-07-24T02:27:49;3.40;;;2.97;;
9918;SDS011;4998;51.024;13.828;2023-07-24T02:30:16;4.70;;;2.93;;
9918;SDS011;4998;51.024;13.828;2023-07-24T02:32:43;3.00;;;2.80;;
9918;SDS011;4998;51.024;13.828;2023-07-24T02:35:11;4.30;;;2.90;;
9918;SDS011;4998;51.024;13.828;2023-07-24T02:37:38;2.80;;;2.60;;
9918;SDS011;4998;51.024;13.828;2023-07-24T02:40:06;3.03;;;2.73;;
9918;SDS011;4998;51.024;13.828;2023-07-24T02:42:33;4.70;;;3.03;;
9918;SDS011;4998;51.024;13.828;2023-07-24T02:45:00;3.30;;;2.90;;
9918;SDS011;4998;51.024;13.828;2023-07-24T02:47:28;3.40;;;3.10;;
9918;SDS011;4998;51.024;13.828;2023-07-24T02:49:55;2.83;;;2.63;;
9918;SDS011;4998;51.024;13.828;2023-07-24T02:52:24;3.47;;;2.80;;
9918;SDS011;4998;51.024;13.828;2023-07-24T02:54:51;5.47;;;2.90;;
9918;SDS011;4998;51.024;13.828;2023-07-24T02:57:18;3.63;;;3.33;;
9918;SDS011;4998;51.024;13.828;2023-07-24T02:59:45;3.03;;;2.80;;
9918;SDS011;4998;51.024;13.828;2023-07-24T03:02:12;3.10;;;2.90;;
9918;SDS011;4998;51.024;13.828;2023-07-24T03:04:39;4.10;;;3.10;;
9918;SDS011;4998;51.024;13.828;2023-07-24T03:07:06;3.70;;;3.13;;
9918;SDS011;4998;51.024;13.828;2023-07-24T03:09:34;2.97;;;2.70;;
9918;SDS011;4998;51.024;13.828;2023-07-24T03:12:01;2.90;;;2.70;;
9918;SDS011;4998;51.024;13.828;2023-07-24T03:14:28;2.67;;;2.30;;
9918;SDS011;4998;51.024;13.828;2023-07-24T03:16:55;4.23;;;3.10;;
9918;SDS011;4998;51.024;13.828;2023-07-24T03:19:22;3.60;;;3.00;;
9918;SDS011;4998;51.024;13.828;2023-07-24T03:21:49;3.27;;;2.77;;
9918;SDS011;4998;51.024;13.828;2023-07-24T03:24:16;3.30;;;3.00;;
9918;SDS011;4998;51.024;13.828;2023-07-24T03:26:45;3.33;;;2.70;;
9918;SDS011;4998;51.024;13.828;2023-07-24T03:29:12;3.60;;;3.00;;
9918;SDS011;4998;51.024;13.828;2023-07-24T03:31:39;3.23;;;2.90;;
9918;SDS011;4998;51.024;13.828;2023-07-24T03:34:06;3.27;;;2.97;;
9918;SDS011;4998;51.024;13.828;2023-07-24T03:36:33;3.47;;;3.00;;
9918;SDS011;4998;51.024;13.828;2023-07-24T03:39:01;3.33;;;3.03;;
9918;SDS011;4998;51.024;13.828;2023-07-24T03:41:28;3.63;;;2.70;;
9918;SDS011;4998;51.024;13.828;2023-07-24T03:43:56;2.87;;;2.67;;
9918;SDS011;4998;51.024;13.828;2023-07-24T03:46:23;2.83;;;2.63;;
9918;SDS011;4998;51.024;13.828;2023-07-24T03:48:51;2.87;;;2.67;;
9918;SDS011;4998;51.024;13.828;2023-07-24T03:51:18;3.30;;;3.00;;
9918;SDS011;4998;51.024;13.828;2023-07-24T03:53:45;2.80;;;2.60;;
9918;SDS011;4998;51.024;13.828;2023-07-24T03:56:12;4.40;;;2.90;;
9918;SDS011;4998;51.024;13.828;2023-07-24T03:58:39;3.10;;;2.83;;
9918;SDS011;4998;51.024;13.828;2023-07-24T04:01:07;2.93;;;2.73;;
9918;SDS011;4998;51.024;13.828;2023-07-24T04:03:35;3.30;;;2.97;;
9918;SDS011;4998;51.024;13.828;2023-07-24T04:06:02;3.13;;;2.63;;
9918;SDS011;4998;51.024;13.828;2023-07-24T04:08:29;3.07;;;2.87;;
9918;SDS011;4998;51.024;13.828;2023-07-24T04:10:56;3.33;;;2.57;;
9918;SDS011;4998;51.024;13.828;2023-07-24T04:13:23;3.30;;;3.07;;
9918;SDS011;4998;51.024;13.828;2023-07-24T04:15:50;2.80;;;2.60;;
9918;SDS011;4998;51.024;13.828;2023-07-24T04:18:18;2.87;;;2.60;;
9918;SDS011;4998;51.024;13.828;2023-07-24T04:20:45;3.20;;;2.90;;
9918;SDS011;4998;51.024;13.828;2023-07-24T04:23:12;3.13;;;2.90;;
9918;SDS011;4998;51.024;13.828;2023-07-24T04:25:39;3.23;;;3.03;;
9918;SDS011;4998;51.024;13.828;2023-07-24T04:28:06;3.07;;;2.80;;
9918;SDS011;4998;51.024;13.828;2023-07-24T04:30:33;3.50;;;3.20;;
9918;SDS011;4998;51.024;13.828;2023-07-24T04:33:00;2.90;;;2.70;;
9918;SDS011;4998;51.024;13.828;2023-07-24T04:35:28;3.70;;;3.20;;
9918;SDS011;4998;51.024;13.828;2023-07-24T04:37:55;3.53;;;3.23;;
9918;SDS011;4998;51.024;13.828;2023-07-24T04:40:23;3.00;;;2.80;;
9918;SDS011;4998;51.024;13.828;2023-07-24T04:42:50;2.90;;;2.70;;
9918;SDS011;4998;51.024;13.828;2023-07-24T04:45:17;5.50;;;2.90;;
9918;SDS011;4998;51.024;13.828;2023-07-24T04:47:44;3.10;;;2.80;;
9918;SDS011;4998;51.024;13.828;2023-07-24T04:50:11;2.80;;;2.60;;
9918;SDS011;4998;51.024;13.828;2023-07-24T04:52:39;7.30;;;3.00;;
9918;SDS011;4998;51.024;13.828;2023-07-24T04:55:06;2.97;;;2.70;;
9918;SDS011;4998;51.024;13.828;2023-07-24T04:57:33;3.60;;;3.30;;
9918;SDS011;4998;51.024;13.828;2023-07-24T05:00:00;4.13;;;3.30;;
9918;SDS011;4998;51.024;13.828;2023-07-24T05:02:27;3.50;;;2.67;;
9918;SDS011;4998;51.024;13.828;2023-07-24T05:04:54;2.83;;;2.60;;
9918;SDS011;4998;51.024;13.828;2023-07-24T05:07:21;3.73;;;3.07;;
9918;SDS011;4998;51.024;13.828;2023-07-24T05:09:49;3.80;;;3.10;;
9918;SDS011;4998;51.024;13.828;2023-07-24T05:12:16;3.53;;;3.23;;
9918;SDS011;4998;51.024;13.828;2023-07-24T05:14:43;3.20;;;2.90;;
9918;SDS011;4998;51.024;13.828;2023-07-24T05:17:10;3.27;;;2.90;;
9918;SDS011;4998;51.024;13.828;2023-07-24T05:19:37;3.50;;;3.17;;
9918;SDS011;4998;51.024;13.828;2023-07-24T05:22:04;3.23;;;3.00;;
9918;SDS011;4998;51.024;13.828;2023-07-24T05:24:31;3.00;;;2.80;;
9918;SDS011;4998;51.024;13.828;2023-07-24T05:26:59;3.53;;;3.23;;
9918;SDS011;4998;51.024;13.828;2023-07-24T05:29:26;3.80;;;2.77;;
9918;SDS011;4998;51.024;13.828;2023-07-24T05:31:53;3.40;;;3.10;;
9918;SDS011;4998;51.024;13.828;2023-07-24T05:34:20;3.10;;;2.80;;
9918;SDS011;4998;51.024;13.828;2023-07-24T05:36:47;3.60;;;2.90;;
9918;SDS011;4998;51.024;13.828;2023-07-24T05:39:14;3.23;;;2.97;;
9918;SDS011;4998;51.024;13.828;2023-07-24T05:41:41;3.40;;;3.10;;
9918;SDS011;4998;51.024;13.828;2023-07-24T05:44:10;4.90;;;3.20;;
9918;SDS011;4998;51.024;13.828;2023-07-24T05:46:37;3.43;;;3.13;;
9918;SDS011;4998;51.024;13.828;2023-07-24T05:49:04;3.70;;;3.40;;
9918;SDS011;4998;51.024;13.828;2023-07-24T05:51:31;3.87;;;3.30;;
9918;SDS011;4998;51.024;13.828;2023-07-24T05:53:57;4.00;;;3.30;;
9918;SDS011;4998;51.024;13.828;2023-07-24T05:56:24;3.63;;;3.33;;
9918;SDS011;4998;51.024;13.828;2023-07-24T05:58:51;2.97;;;2.77;;
9918;SDS011;4998;51.024;13.828;2023-07-24T06:01:20;3.90;;;3.27;;
9918;SDS011;4998;51.024;13.828;2023-07-24T06:03:47;3.53;;;3.13;;
9918;SDS011;4998;51.024;13.828;2023-07-24T06:06:14;3.00;;;2.70;;
9918;SDS011;4998;51.024;13.828;2023-07-24T06:08:41;3.43;;;3.13;;
9918;SDS011;4998;51.024;13.828;2023-07-24T06:11:08;3.90;;;3.37;;
9918;SDS011;4998;51.024;13.828;2023-07-24T06:13:35;3.20;;;2.90;;
9918;SDS011;4998;51.024;13.828;2023-07-24T06:16:02;3.37;;;3.07;;
9918;SDS011;4998;51.024;13.828;2023-07-24T06:18:33;6.63;;;2.93;;
9918;SDS011;4998;51.024;13.828;2023-07-24T06:21:00;3.47;;;3.13;;
9918;SDS011;4998;51.024;13.828;2023-07-24T06:23:28;3.47;;;3.17;;
9918;SDS011;4998;51.024;13.828;2023-07-24T06:25:55;3.27;;;2.97;;
9918;SDS011;4998;51.024;13.828;2023-07-24T06:28:22;3.70;;;3.23;;
9918;SDS011;4998;51.024;13.828;2023-07-24T06:30:51;3.50;;;2.93;;
9918;SDS011;4998;51.024;13.828;2023-07-24T06:33:19;4.10;;;3.70;;
9918;SDS011;4998;51.024;13.828;2023-07-24T06:35:47;5.03;;;4.60;;
9918;SDS011;4998;51.024;13.828;2023-07-24T06:38:14;4.33;;;4.03;;
9918;SDS011;4998;51.024;13.828;2023-07-24T06:40:41;3.80;;;3.50;;
9918;SDS011;4998;51.024;13.828;2023-07-24T06:43:08;3.80;;;3.10;;
9918;SDS011;4998;51.024;13.828;2023-07-24T06:45:35;5.00;;;3.50;;
9918;SDS011;4998;51.024;13.828;2023-07-24T06:48:03;3.63;;;3.27;;
9918;SDS011;4998;51.024;13.828;2023-07-24T06:50:30;3.60;;;3.30;;
9918;SDS011;4998;51.024;13.828;2023-07-24T06:52:58;3.50;;;3.20;;
9918;SDS011;4998;51.024;13.828;2023-07-24T06:55:25;3.50;;;3.20;;
9918;SDS011;4998;51.024;13.828;2023-07-24T06:57:52;3.10;;;2.80;;
9918;SDS011;4998;51.024;13.828;2023-07-24T07:00:19;3.73;;;3.27;;
9918;SDS011;4998;51.024;13.828;2023-07-24T07:02:46;3.40;;;3.10;;
9918;SDS011;4998;51.024;13.828;2023-07-24T07:05:13;4.83;;;3.03;;
9918;SDS011;4998;51.024;13.828;2023-07-24T07:07:40;4.00;;;3.60;;
9918;SDS011;4998;51.024;13.828;2023-07-24T07:10:08;3.30;;;3.03;;
9918;SDS011;4998;51.024;13.828;2023-07-24T07:12:35;3.60;;;3.27;;
9918;SDS011;4998;51.024;13.828;2023-07-24T07:15:03;3.30;;;3.00;;
9918;SDS011;4998;51.024;13.828;2023-07-24T07:17:30;3.50;;;3.20;;
9918;SDS011;4998;51.024;13.828;2023-07-24T07:19:57;4.00;;;3.60;;
9918;SDS011;4998;51.024;13.828;2023-07-24T07:22:24;3.90;;;3.50;;
9918;SDS011;4998;51.024;13.828;2023-07-24T07:24:51;10.40;;;3.27;;
9918;SDS011;4998;51.024;13.828;2023-07-24T07:27:19;3.67;;;3.33;;
9918;SDS011;4998;51.024;13.828;2023-07-24T07:29:46;3.43;;;3.13;;
9918;SDS011;4998;51.024;13.828;2023-07-24T07:32:13;6.47;;;3.37;;
9918;SDS011;4998;51.024;13.828;2023-07-24T07:34:40;3.13;;;2.83;;
9918;SDS011;4998;51.024;13.828;2023-07-24T07:37:07;3.73;;;3.30;;
9918;SDS011;4998;51.024;13.828;2023-07-24T07:39:34;4.40;;;3.83;;
9918;SDS011;4998;51.024;13.828;2023-07-24T07:42:02;4.80;;;3.33;;
9918;SDS011;4998;51.024;13.828;2023-07-24T07:44:31;3.90;;;3.50;;
9918;SDS011;4998;51.024;13.828;2023-07-24T07:46:58;3.57;;;3.27;;
9918;SDS011;4998;51.024;13.828;2023-07-24T07:49:24;3.57;;;3.13;;
9918;SDS011;4998;51.024;13.828;2023-07-24T07:51:52;3.87;;;3.57;;
9918;SDS011;4998;51.024;13.828;2023-07-24T07:54:18;3.40;;;3.10;;
9918;SDS011;4998;51.024;13.828;2023-07-24T07:56:46;4.13;;;3.73;;
9918;SDS011;4998;51.024;13.828;2023-07-24T07:59:13;4.00;;;3.70;;
9918;SDS011;4998;51.024;13.828;2023-07-24T08:01:41;3.60;;;3.30;;
9918;SDS011;4998;51.024;13.828;2023-07-24T08:04:10;3.67;;;3.37;;
9918;SDS011;4998;51.024;13.828;2023-07-24T08:06:37;3.50;;;3.20;;
9918;SDS011;4998;51.024;13.828;2023-07-24T08:09:04;3.80;;;3.40;;
9918;SDS011;4998;51.024;13.828;2023-07-24T08:11:31;3.10;;;2.90;;
9918;SDS011;4998;51.024;13.828;2023-07-24T08:13:58;4.00;;;3.47;;
9918;SDS011;4998;51.024;13.828;2023-07-24T08:16:25;3.50;;;3.20;;
9918;SDS011;4998;51.024;13.828;2023-07-24T08:18:53;3.53;;;3.23;;
9918;SDS011;4998;51.024;13.828;2023-07-24T08:21:20;3.03;;;2.77;;
9918;SDS011;4998;51.024;13.828;2023-07-24T08:23:47;3.57;;;3.27;;
9918;SDS011;4998;51.024;13.828;2023-07-24T08:26:14;2.97;;;2.77;;
9918;SDS011;4998;51.024;13.828;2023-07-24T08:28:41;5.30;;;3.20;;
9918;SDS011;4998;51.024;13.828;2023-07-24T08:31:08;3.40;;;3.13;;
9918;SDS011;4998;51.024;13.828;2023-07-24T08:33:35;2.90;;;2.70;;
9918;SDS011;4998;51.024;13.828;2023-07-24T08:36:04;3.50;;;3.20;;
9918;SDS011;4998;51.024;13.828;2023-07-24T08:38:33;3.70;;;3.03;;
9918;SDS011;4998;51.024;13.828;2023-07-24T08:41:01;3.33;;;3.03;;
9918;SDS011;4998;51.024;13.828;2023-07-24T08:43:29;4.20;;;3.60;;
9918;SDS011;4998;51.024;13.828;2023-07-24T08:45:57;3.50;;;3.20;;
9918;SDS011;4998;51.024;13.828;2023-07-24T08:48:25;4.20;;;3.80;;
9918;SDS011;4998;51.024;13.828;2023-07-24T08:50:55;3.23;;;2.93;;
9918;SDS011;4998;51.024;13.828;2023-07-24T08:53:25;3.30;;;3.00;;
9918;SDS011;4998;51.024;13.828;2023-07-24T08:55:53;3.53;;;3.23;;
9918;SDS011;4998;51.024;13.828;2023-07-24T08:58:20;3.43;;;3.13;;
9918;SDS011;4998;51.024;13.828;2023-07-24T09:00:48;5.00;;;3.03;;
9918;SDS011;4998;51.024;13.828;2023-07-24T09:03:16;4.10;;;3.70;;
9918;SDS011;4998;51.024;13.828;2023-07-24T09:05:44;3.90;;;3.50;;
9918;SDS011;4998;51.024;13.828;2023-07-24T09:08:11;3.20;;;2.90;;
9918;SDS011;4998;51.024;13.828;2023-07-24T09:10:39;3.90;;;3.50;;
9918;SDS011;4998;51.024;13.828;2023-07-24T09:13:06;5.17;;;3.67;;
9918;SDS011;4998;51.024;13.828;2023-07-24T09:15:40;5.77;;;3.43;;
9918;SDS011;4998;51.024;13.828;2023-07-24T09:18:07;3.70;;;3.40;;
9918;SDS011;4998;51.024;13.828;2023-07-24T09:20:38;3.63;;;3.30;;
9918;SDS011;4998;51.024;13.828;2023-07-24T09:23:06;4.90;;;3.70;;
9918;SDS011;4998;51.024;13.828;2023-07-24T09:25:34;3.87;;;3.50;;
9918;SDS011;4998;51.024;13.828;2023-07-24T09:28:10;4.77;;;3.80;;
9918;SDS011;4998;51.024;13.828;2023-07-24T09:30:37;3.93;;;3.63;;
9918;SDS011;4998;51.024;13.828;2023-07-24T09:33:05;4.10;;;3.80;;
9918;SDS011;4998;51.024;13.828;2023-07-24T09:35:33;3.67;;;3.37;;
9918;SDS011;4998;51.024;13.828;2023-07-24T09:38:05;3.93;;;3.63;;
9918;SDS011;4998;51.024;13.828;2023-07-24T09:40:37;4.10;;;3.77;;
9918;SDS011;4998;51.024;13.828;2023-07-24T09:43:16;6.80;;;4.10;;
9918;SDS011;4998;51.024;13.828;2023-07-24T09:45:44;3.70;;;3.40;;
9918;SDS011;4998;51.024;13.828;2023-07-24T09:48:11;4.20;;;3.90;;
9918;SDS011;4998;51.024;13.828;2023-07-24T09:50:40;4.23;;;3.87;;
9918;SDS011;4998;51.024;13.828;2023-07-24T09:53:09;5.33;;;4.83;;
9918;SDS011;4998;51.024;13.828;2023-07-24T09:55:43;4.73;;;4.33;;
9918;SDS011;4998;51.024;13.828;2023-07-24T09:58:18;4.30;;;3.90;;
9918;SDS011;4998;51.024;13.828;2023-07-24T10:00:48;5.73;;;3.83;;
9918;SDS011;4998;51.024;13.828;2023-07-24T10:03:16;4.63;;;4.23;;
9918;SDS011;4998;51.024;13.828;2023-07-24T10:05:45;4.67;;;4.27;;
9918;SDS011;4998;51.024;13.828;2023-07-24T10:08:13;4.80;;;4.10;;
9918;SDS011;4998;51.024;13.828;2023-07-24T10:10:41;4.57;;;4.13;;
9918;SDS011;4998;51.024;13.828;2023-07-24T10:13:09;5.03;;;4.53;;
9918;SDS011;4998;51.024;13.828;2023-07-24T10:15:39;4.40;;;4.00;;
9918;SDS011;4998;51.024;13.828;2023-07-24T10:18:08;4.67;;;4.07;;
9918;SDS011;4998;51.024;13.828;2023-07-24T10:20:35;4.63;;;4.13;;
9918;SDS011;4998;51.024;13.828;2023-07-24T10:23:04;4.77;;;4.27;;
9918;SDS011;4998;51.024;13.828;2023-07-24T10:25:32;4.50;;;4.00;;
9918;SDS011;4998;51.024;13.828;2023-07-24T10:28:03;4.37;;;3.97;;
9918;SDS011;4998;51.024;13.828;2023-07-24T10:30:33;4.80;;;4.23;;
9918;SDS011;4998;51.024;13.828;2023-07-24T10:33:05;5.60;;;4.97;;
9918;SDS011;4998;51.024;13.828;2023-07-24T10:35:37;4.70;;;4.30;;
9918;SDS011;4998;51.024;13.828;2023-07-24T10:38:04;4.53;;;4.13;;
9918;SDS011;4998;51.024;13.828;2023-07-24T10:40:32;5.17;;;4.67;;
9918;SDS011;4998;51.024;13.828;2023-07-24T10:43:00;5.20;;;4.60;;
9918;SDS011;4998;51.024;13.828;2023-07-24T10:45:40;4.50;;;4.10;;
9918;SDS011;4998;51.024;13.828;2023-07-24T10:48:09;5.10;;;4.60;;
9918;SDS011;4998;51.024;13.828;2023-07-24T10:50:40;5.60;;;4.40;;
9918;SDS011;4998;51.024;13.828;2023-07-24T10:53:08;5.60;;;5.00;;
9918;SDS011;4998;51.024;13.828;2023-07-24T10:55:35;5.50;;;5.00;;
9918;SDS011;4998;51.024;13.828;2023-07-24T10:58:02;6.70;;;5.17;;
9918;SDS011;4998;51.024;13.828;2023-07-24T11:00:29;5.37;;;4.83;;
9918;SDS011;4998;51.024;13.828;2023-07-24T11:02:56;7.27;;;4.80;;
9918;SDS011;4998;51.024;13.828;2023-07-24T11:05:25;6.90;;;5.00;;
9918;SDS011;4998;51.024;13.828;2023-07-24T11:07:52;5.50;;;4.90;;
9918;SDS011;4998;51.024;13.828;2023-07-24T11:10:19;7.27;;;4.97;;
9918;SDS011;4998;51.024;13.828;2023-07-24T11:12:48;5.83;;;4.97;;
9918;SDS011;4998;51.024;13.828;2023-07-24T11:15:22;5.30;;;4.80;;
9918;SDS011;4998;51.024;13.828;2023-07-24T11:17:51;7.30;;;5.53;;
9918;SDS011;4998;51.024;13.828;2023-07-24T11:20:18;6.10;;;5.30;;
9918;SDS011;4998;51.024;13.828;2023-07-24T11:22:47;5.93;;;4.87;;
9918;SDS011;4998;51.024;13.828;2023-07-24T11:25:14;6.47;;;5.50;;
9918;SDS011;4998;51.024;13.828;2023-07-24T11:27:41;5.23;;;4.60;;
9918;SDS011;4998;51.024;13.828;2023-07-24T11:30:10;5.57;;;4.37;;
9918;SDS011;4998;51.024;13.828;2023-07-24T11:32:38;9.67;;;5.70;;
9918;SDS011;4998;51.024;13.828;2023-07-24T11:35:06;6.30;;;5.23;;
9918;SDS011;4998;51.024;13.828;2023-07-24T11:37:34;6.83;;;4.93;;
9918;SDS011;4998;51.024;13.828;2023-07-24T11:40:04;6.10;;;4.80;;
9918;SDS011;4998;51.024;13.828;2023-07-24T11:42:38;5.17;;;4.67;;
9918;SDS011;4998;51.024;13.828;2023-07-24T11:45:06;6.33;;;4.97;;
9918;SDS011;4998;51.024;13.828;2023-07-24T11:47:41;5.77;;;4.63;;
9918;SDS011;4998;51.024;13.828;2023-07-24T11:50:12;6.40;;;4.73;;
9918;SDS011;4998;51.024;13.828;2023-07-24T11:52:40;5.70;;;4.63;;
9918;SDS011;4998;51.024;13.828;2023-07-24T11:55:10;6.30;;;4.60;;
9918;SDS011;4998;51.024;13.828;2023-07-24T11:57:38;4.87;;;4.37;;
9918;SDS011;4998;51.024;13.828;2023-07-24T12:00:06;5.00;;;4.30;;
9918;SDS011;4998;51.024;13.828;2023-07-24T12:02:44;5.43;;;4.40;;
9918;SDS011;4998;51.024;13.828;2023-07-24T12:05:11;5.60;;;5.00;;
9918;SDS011;4998;51.024;13.828;2023-07-24T12:07:38;5.80;;;5.03;;
9918;SDS011;4998;51.024;13.828;2023-07-24T12:10:06;7.17;;;5.20;;
9918;SDS011;4998;51.024;13.828;2023-07-24T12:12:42;6.20;;;4.70;;
9918;SDS011;4998;51.024;13.828;2023-07-24T12:15:11;5.33;;;4.83;;
9918;SDS011;4998;51.024;13.828;2023-07-24T12:17:39;5.80;;;5.03;;
9918;SDS011;4998;51.024;13.828;2023-07-24T12:20:08;6.03;;;5.20;;
9918;SDS011;4998;51.024;13.828;2023-07-24T12:22:36;7.30;;;5.40;;
9918;SDS011;4998;51.024;13.828;2023-07-24T12:25:03;6.13;;;5.50;;
9918;SDS011;4998;51.024;13.828;2023-07-24T12:27:31;5.87;;;5.27;;
9918;SDS011;4998;51.024;13.828;2023-07-24T12:29:59;6.43;;;5.30;;
9918;SDS011;4998;51.024;13.828;2023-07-24T12:32:28;6.13;;;5.27;;
9918;SDS011;4998;51.024;13.828;2023-07-24T12:34:55;7.00;;;6.30;;
9918;SDS011;4998;51.024;13.828;2023-07-24T12:37:22;6.90;;;6.10;;
9918;SDS011;4998;51.024;13.828;2023-07-24T12:39:49;8.40;;;6.90;;
9918;SDS011;4998;51.024;13.828;2023-07-24T12:42:16;6.80;;;6.10;;
9918;SDS011;4998;51.024;13.828;2023-07-24T12:44:43;7.43;;;5.80;;
9918;SDS011;4998;51.024;13.828;2023-07-24T12:47:11;6.17;;;5.40;;
9918;SDS011;4998;51.024;13.828;2023-07-24T12:49:38;5.97;;;5.20;;
9918;SDS011;4998;51.024;13.828;2023-07-24T12:52:05;5.93;;;5.00;;
9918;SDS011;4998;51.024;13.828;2023-07-24T12:54:33;6.63;;;5.30;;
9918;SDS011;4998;51.024;13.828;2023-07-24T12:57:00;6.87;;;5.77;;
9918;SDS011;4998;51.024;13.828;2023-07-24T12:59:28;6.90;;;6.10;;
9918;SDS011;4998;51.024;13.828;2023-07-24T13:01:55;6.97;;;5.73;;
9918;SDS011;4998;51.024;13.828;2023-07-24T13:04:24;6.43;;;5.60;;
9918;SDS011;4998;51.024;13.828;2023-07-24T13:06:51;5.90;;;5.30;;
9918;SDS011;4998;51.024;13.828;2023-07-24T13:09:18;6.07;;;5.47;;
9918;SDS011;4998;51.024;13.828;2023-07-24T13:11:45;8.97;;;7.97;;
9918;SDS011;4998;51.024;13.828;2023-07-24T13:14:13;13.60;;;7.80;;
9918;SDS011;4998;51.024;13.828;2023-07-24T13:16:41;8.20;;;6.40;;
9918;SDS011;4998;51.024;13.828;2023-07-24T13:19:08;7.57;;;6.10;;
9918;SDS011;4998;51.024;13.828;2023-07-24T13:21:36;6.60;;;5.50;;
9918;SDS011;4998;51.024;13.828;2023-07-24T13:24:05;7.07;;;5.70;;
9918;SDS011;4998;51.024;13.828;2023-07-24T13:26:32;7.33;;;5.60;;
9918;SDS011;4998;51.024;13.828;2023-07-24T13:28:59;7.33;;;5.53;;
9918;SDS011;4998;51.024;13.828;2023-07-24T13:31:26;6.40;;;5.47;;
9918;SDS011;4998;51.024;13.828;2023-07-24T13:33:54;6.30;;;5.50;;
9918;SDS011;4998;51.024;13.828;2023-07-24T13:36:21;7.17;;;5.30;;
9918;SDS011;4998;51.024;13.828;2023-07-24T13:38:49;5.90;;;4.90;;
9918;SDS011;4998;51.024;13.828;2023-07-24T13:41:17;6.77;;;5.50;;
9918;SDS011;4998;51.024;13.828;2023-07-24T13:43:44;6.00;;;5.20;;
9918;SDS011;4998;51.024;13.828;2023-07-24T13:46:11;5.93;;;5.10;;
9918;SDS011;4998;51.024;13.828;2023-07-24T13:48:38;5.93;;;5.10;;
9918;SDS011;4998;51.024;13.828;2023-07-24T13:51:05;5.50;;;5.00;;
9918;SDS011;4998;51.024;13.828;2023-07-24T13:53:32;6.30;;;5.10;;
9918;SDS011;4998;51.024;13.828;2023-07-24T13:56:00;5.63;;;4.80;;
9918;SDS011;4998;51.024;13.828;2023-07-24T13:58:27;5.20;;;4.20;;
9918;SDS011;4998;51.024;13.828;2023-07-24T14:00:54;5.10;;;3.93;;
9918;SDS011;4998;51.024;13.828;2023-07-24T14:03:21;5.10;;;4.60;;
9918;SDS011;4998;51.024;13.828;2023-07-24T14:05:51;4.10;;;3.80;;
9918;SDS011;4998;51.024;13.828;2023-07-24T14:08:18;4.80;;;4.30;;
9918;SDS011;4998;51.024;13.828;2023-07-24T14:10:45;4.03;;;3.63;;
9918;SDS011;4998;51.024;13.828;2023-07-24T14:13:13;4.23;;;3.83;;
9918;SDS011;4998;51.024;13.828;2023-07-24T14:15:40;4.70;;;4.30;;
9918;SDS011;4998;51.024;13.828;2023-07-24T14:18:07;5.20;;;4.67;;
9918;SDS011;4998;51.024;13.828;2023-07-24T14:20:34;6.13;;;4.83;;
9918;SDS011;4998;51.024;13.828;2023-07-24T14:23:02;4.60;;;4.20;;
9918;SDS011;4998;51.024;13.828;2023-07-24T14:25:29;5.57;;;4.60;;
9918;SDS011;4998;51.024;13.828;2023-07-24T14:27:56;4.47;;;4.07;;
9918;SDS011;4998;51.024;13.828;2023-07-24T14:30:24;4.93;;;4.50;;
9918;SDS011;4998;51.024;13.828;2023-07-24T14:32:51;5.23;;;3.90;;
9918;SDS011;4998;51.024;13.828;2023-07-24T14:35:18;5.97;;;3.93;;
9918;SDS011;4998;51.024;13.828;2023-07-24T14:37:45;7.33;;;4.27;;
9918;SDS011;4998;51.024;13.828;2023-07-24T14:40:12;4.73;;;4.23;;
9918;SDS011;4998;51.024;13.828;2023-07-24T14:42:39;3.67;;;3.37;;
9918;SDS011;4998;51.024;13.828;2023-07-24T14:45:07;4.43;;;4.03;;
9918;SDS011;4998;51.024;13.828;2023-07-24T14:47:36;4.97;;;4.47;;
9918;SDS011;4998;51.024;13.828;2023-07-24T14:50:03;4.73;;;4.23;;
9918;SDS011;4998;51.024;13.828;2023-07-24T14:52:31;5.47;;;4.40;;
9918;SDS011;4998;51.024;13.828;2023-07-24T14:54:58;5.27;;;4.57;;
9918;SDS011;4998;51.024;13.828;2023-07-24T14:57:25;4.90;;;4.40;;
9918;SDS011;4998;51.024;13.828;2023-07-24T14:59:52;4.13;;;3.73;;
9918;SDS011;4998;51.024;13.828;2023-07-24T15:02:19;5.33;;;4.17;;
9918;SDS011;4998;51.024;13.828;2023-07-24T15:04:47;4.33;;;3.93;;
9918;SDS011;4998;51.024;13.828;2023-07-24T15:07:14;5.40;;;4.90;;